Time;durP1;ratioP1;P1;durP2;ratioP2;P2;SDS_P1;SDS_P2;PMS_P1;PMS_P2;Temp;Humidity;BMP_temperature;BMP_pressure;BME280_temperature;BME280_humidity;BME280_pressure;Samples;Min_cycle;Max_cycle;Signal;HPM_P1;HPM_P2
2022/01/10 08:10:11;;;;;;;3.88;1.92;;;21.50;47.50;;;;;;5108197;27;20786;-68
2022/01/10 08:12:36;;;;;;;3.95;1.60;;;21.50;49.20;;;;;;5091235;28;20127;-69
2022/01/10 08:15:03;;;;;;;3.53;1.60;;;21.50;49.50;;;;;;5096607;28;20048;-68
2022/01/10 08:17:29;;;;;;;6.82;1.98;;;21.50;49.70;;;;;;5101593;28;20071;-69
2022/01/10 08:19:55;;;;;;;3.88;1.83;;;21.50;49.90;;;;;;5079828;28;20161;-69
2022/01/10 08:22:21;;;;;;;4.63;1.70;;;21.50;50.70;;;;;;5103128;28;20130;-68
2022/01/10 08:24:47;;;;;;;13.07;1.85;;;21.50;49.50;;;;;;5099478;28;20043;-68
2022/01/10 08:27:14;;;;;;;6.18;1.85;;;21.50;49.30;;;;;;5099282;27;21030;-66
2022/01/10 08:29:39;;;;;;;5.65;1.92;;;21.60;49.20;;;;;;5100694;28;20051;-69
2022/01/10 08:32:05;;;;;;;7.32;2.03;;;21.80;48.70;;;;;;5101061;28;20036;-69
2022/01/10 08:34:31;;;;;;;4.80;1.83;;;21.80;48.60;;;;;;5101553;28;20122;-68
2022/01/10 08:36:57;;;;;;;5.03;1.92;;;21.80;48.60;;;;;;5099813;28;20495;-70
2022/01/10 08:39:22;;;;;;;3.40;1.50;;;21.80;48.60;;;;;;5102885;28;20041;-69
2022/01/10 08:41:48;;;;;;;5.80;1.85;;;21.80;48.60;;;;;;5098016;28;20040;-68
2022/01/10 08:44:15;;;;;;;4.75;1.90;;;21.80;48.60;;;;;;5106667;28;20502;-70
2022/01/10 08:46:41;;;;;;;4.10;1.92;;;21.90;48.70;;;;;;5097795;28;20052;-69
2022/01/10 08:49:06;;;;;;;5.97;1.83;;;21.90;48.60;;;;;;5098153;28;20761;-68
2022/01/10 08:51:34;;;;;;;6.40;1.88;;;22.00;48.50;;;;;;5098671;28;20036;-70
2022/01/10 08:54:01;;;;;;;9.90;1.88;;;22.00;48.40;;;;;;5101199;28;20052;-68
2022/01/10 08:56:27;;;;;;;3.75;2.10;;;22.00;48.40;;;;;;5115660;28;20036;-69
2022/01/10 08:58:53;;;;;;;4.60;2.10;;;22.00;48.40;;;;;;5103563;28;20047;-68
2022/01/10 09:01:21;;;;;;;5.45;1.98;;;22.00;48.40;;;;;;5100309;27;20415;-68
2022/01/10 09:03:47;;;;;;;;;;;22.00;48.40;;;;;;5101091;28;20594;-71
2022/01/10 09:06:12;;;;;;;9.82;1.92;;;22.00;48.90;;;;;;5100594;28;20023;-69
2022/01/10 09:08:40;;;;;;;4.53;1.90;;;22.00;48.60;;;;;;5099238;28;20116;-69
2022/01/10 09:11:06;;;;;;;7.20;1.80;;;22.00;48.50;;;;;;5096518;28;20051;-69
2022/01/10 09:13:32;;;;;;;7.53;1.80;;;22.00;48.50;;;;;;5098680;28;20067;-69
2022/01/10 09:15:58;;;;;;;3.72;1.90;;;22.00;48.40;;;;;;5097273;28;20115;-68
2022/01/10 09:18:26;;;;;;;5.95;1.98;;;22.00;48.40;;;;;;5100729;28;20044;-68
2022/01/10 09:20:52;;;;;;;7.13;1.88;;;22.00;48.40;;;;;;5087758;28;20032;-68
2022/01/10 09:23:18;;;;;;;6.82;1.98;;;22.10;48.50;;;;;;5084691;28;20048;-69
2022/01/10 09:25:44;;;;;;;4.82;2.08;;;22.10;48.40;;;;;;5083380;28;20036;-68
2022/01/10 09:28:10;;;;;;;7.13;2.05;;;22.10;48.40;;;;;;5082570;28;20113;-69
2022/01/10 09:30:36;;;;;;;6.78;2.00;;;22.10;48.40;;;;;;5083555;28;20040;-69
2022/01/10 09:33:01;;;;;;;6.80;1.75;;;22.10;48.40;;;;;;5081059;28;20039;-69
2022/01/10 09:35:27;;;;;;;6.70;1.98;;;22.10;48.60;;;;;;5089966;28;20217;-68
2022/01/10 09:37:53;;;;;;;8.02;2.47;;;22.10;48.70;;;;;;5090073;28;20058;-67
2022/01/10 09:40:19;;;;;;;7.82;1.92;;;22.10;48.40;;;;;;5087672;28;20035;-68
2022/01/10 09:42:46;;;;;;;5.22;1.95;;;22.10;48.30;;;;;;5083789;28;20036;-67
2022/01/10 09:45:12;;;;;;;5.35;2.13;;;22.00;48.00;;;;;;5070397;28;20031;-67
2022/01/10 09:47:38;;;;;;;5.22;2.38;;;22.00;47.80;;;;;;5085784;28;20102;-67
2022/01/10 09:50:07;;;;;;;8.55;2.15;;;22.00;47.80;;;;;;5089709;28;20885;-67
2022/01/10 09:52:33;;;;;;;4.45;2.05;;;22.00;47.80;;;;;;5091321;28;20043;-67
2022/01/10 09:54:59;;;;;;;4.32;1.92;;;22.00;47.80;;;;;;5088315;28;20044;-67
2022/01/10 09:57:24;;;;;;;6.10;2.50;;;21.90;47.80;;;;;;5082228;28;20051;-69
2022/01/10 09:59:50;;;;;;;6.05;2.10;;;21.90;47.60;;;;;;5086901;28;20043;-67
2022/01/10 10:02:17;;;;;;;7.00;2.50;;;21.90;47.60;;;;;;5091196;28;20121;-66
2022/01/10 10:04:43;;;;;;;7.20;2.40;;;21.90;47.50;;;;;;5091641;28;20047;-66
2022/01/10 10:07:10;;;;;;;7.50;2.25;;;21.90;47.40;;;;;;5092205;28;20506;-67
2022/01/10 10:09:36;;;;;;;7.70;2.40;;;21.90;47.40;;;;;;5089473;28;20047;-67
2022/01/10 10:12:03;;;;;;;7.13;2.10;;;21.90;47.40;;;;;;5087010;28;20047;-67
2022/01/10 10:14:30;;;;;;;6.93;3.00;;;21.90;47.40;;;;;;5082683;28;20130;-67
2022/01/10 10:16:57;;;;;;;9.80;2.70;;;21.80;47.30;;;;;;5081150;28;20040;-68
2022/01/10 10:19:27;;;;;;;7.13;2.17;;;21.80;47.10;;;;;;5082487;28;20116;-68
2022/01/10 10:21:54;;;;;;;6.38;2.38;;;21.80;46.80;;;;;;5085638;28;20140;-68
2022/01/10 10:24:20;;;;;;;7.13;2.70;;;21.80;46.80;;;;;;5085588;28;20530;-67
2022/01/10 10:26:47;;;;;;;11.35;2.40;;;21.80;46.80;;;;;;5087556;28;20050;-68
2022/01/10 10:29:17;;;;;;;9.35;2.35;;;21.80;46.80;;;;;;5081130;28;20140;-67
2022/01/10 10:31:48;;;;;;;9.20;2.35;;;21.80;46.70;;;;;;5080795;28;20044;-67
2022/01/10 10:34:20;;;;;;;7.50;2.13;;;21.80;46.70;;;;;;5081636;28;20044;-68
2022/01/10 10:37:08;;;;;;;7.85;2.63;;;21.80;46.60;;;;;;5082705;28;20040;-71
2022/01/10 10:39:37;;;;;;;9.80;2.00;;;21.80;46.30;;;;;;5092720;28;20135;-69
2022/01/10 10:42:06;;;;;;;11.32;2.20;;;21.80;46.70;;;;;;5091093;28;20044;-70
2022/01/10 10:44:33;;;;;;;6.05;2.13;;;21.80;46.90;;;;;;5088057;28;20040;-71
2022/01/10 10:46:59;;;;;;;6.88;1.98;;;21.80;47.20;;;;;;5089856;28;20480;-69
2022/01/10 10:49:34;;;;;;;4.68;2.05;;;21.90;47.30;;;;;;5090944;28;20044;-66
2022/01/10 10:52:03;;;;;;;8.63;1.80;;;21.80;48.10;;;;;;5090272;28;20356;-69
2022/01/10 10:54:31;;;;;;;7.47;1.98;;;21.80;47.50;;;;;;5088032;28;20055;-69
2022/01/10 10:56:59;;;;;;;5.70;2.20;;;21.80;47.60;;;;;;5079422;28;20048;-70
2022/01/10 10:59:29;;;;;;;4.43;2.00;;;21.80;47.70;;;;;;5084413;28;20471;-71
2022/01/10 11:01:55;;;;;;;5.13;1.73;;;21.90;47.90;;;;;;5083141;28;20405;-71
2022/01/10 11:04:22;;;;;;;5.32;1.88;;;21.90;48.80;;;;;;5081809;28;20074;-68
2022/01/10 11:06:47;;;;;;;5.07;1.80;;;21.90;48.10;;;;;;5089034;28;20036;-70
2022/01/10 11:09:14;;;;;;;3.95;1.80;;;21.90;48.10;;;;;;5084413;28;20364;-69
2022/01/10 11:11:44;;;;;;;6.38;2.00;;;21.90;48.00;;;;;;5078754;28;20117;-71
2022/01/10 11:14:14;;;;;;;11.70;1.88;;;21.90;48.00;;;;;;5084481;28;20040;-69
2022/01/10 11:16:41;;;;;;;6.72;2.40;;;21.90;48.00;;;;;;5079509;28;20043;-70
2022/01/10 11:19:23;;;;;;;10.77;1.73;;;21.90;47.90;;;;;;5084281;28;20906;-70
2022/01/10 11:22:01;;;;;;;6.22;2.13;;;21.90;47.80;;;;;;5082468;28;20396;-70
2022/01/10 11:24:53;;;;;;;6.63;2.10;;;21.90;47.90;;;;;;5083008;28;20417;-67
2022/01/10 11:27:42;;;;;;;7.65;2.13;;;21.90;48.00;;;;;;5082336;28;20129;-68
2022/01/10 11:30:23;;;;;;;5.90;1.90;;;21.90;48.00;;;;;;5095250;28;20064;-70
2022/01/10 11:33:03;;;;;;;8.05;2.20;;;21.90;47.90;;;;;;5080283;28;20044;-69
2022/01/10 11:35:39;;;;;;;9.30;2.00;;;21.90;47.90;;;;;;5081464;28;20054;-69
2022/01/10 11:38:36;;;;;;;11.38;2.53;;;21.90;47.90;;;;;;5083633;28;20101;-72
2022/01/10 11:41:06;;;;;;;12.30;2.20;;;21.90;47.30;;;;;;5061514;28;20063;-67
2022/01/10 11:43:55;;;;;;;10.75;2.13;;;21.80;47.80;;;;;;5081900;28;20154;-70
2022/01/10 11:46:32;;;;;;;9.43;2.25;;;21.80;47.70;;;;;;5081897;28;20143;-70
2022/01/10 11:49:00;;;;;;;20.73;2.47;;;21.80;47.60;;;;;;5081949;28;20056;-69
2022/01/10 11:51:35;;;;;;;13.48;2.75;;;21.90;47.60;;;;;;5082238;28;20087;-69
2022/01/10 11:54:09;;;;;;;7.85;2.58;;;21.90;47.40;;;;;;5082268;28;20096;-68
2022/01/10 11:56:37;;;;;;;12.82;2.30;;;21.90;47.30;;;;;;5081109;28;20051;-69
2022/01/10 11:59:16;;;;;;;14.70;2.53;;;21.90;47.40;;;;;;5082058;28;20094;-69
2022/01/10 12:01:45;;;;;;;14.95;2.67;;;21.90;47.30;;;;;;5081889;28;20123;-69
2022/01/10 12:04:11;;;;;;;11.02;2.60;;;21.90;47.30;;;;;;5082251;28;20066;-69
2022/01/10 12:06:37;;;;;;;13.95;2.20;;;21.90;47.30;;;;;;5082522;28;20056;-69
2022/01/10 12:09:04;;;;;;;10.55;2.15;;;21.90;47.30;;;;;;5081055;28;20093;-70
2022/01/10 12:11:30;;;;;;;11.90;2.30;;;21.90;47.30;;;;;;5085001;28;20593;-69
2022/01/10 12:13:58;;;;;;;20.85;2.00;;;21.90;47.30;;;;;;5081014;28;20143;-69
2022/01/10 12:16:23;;;;;;;14.90;2.13;;;21.90;47.30;;;;;;5080707;28;20052;-69
2022/01/10 12:18:49;;;;;;;11.27;2.38;;;21.90;48.10;;;;;;5080677;28;20043;-70
2022/01/10 12:21:15;;;;;;;11.23;2.17;;;21.90;47.30;;;;;;5082922;28;20079;-69
2022/01/10 12:23:42;;;;;;;13.30;2.20;;;21.90;47.30;;;;;;5082207;28;20050;-69
2022/01/10 12:26:08;;;;;;;8.25;1.90;;;22.00;47.40;;;;;;5065279;28;20040;-70
2022/01/10 12:28:34;;;;;;;9.45;2.70;;;21.90;47.40;;;;;;5082441;28;20479;-69
2022/01/10 12:31:02;;;;;;;16.70;2.20;;;22.00;47.60;;;;;;5080061;28;20115;-69
2022/01/10 12:33:28;;;;;;;;;;;22.00;47.60;;;;;;5083920;28;20055;-70
2022/01/10 12:35:57;;;;;;;9.75;2.22;;;22.00;47.70;;;;;;5085607;28;20010;-68
2022/01/10 12:38:23;;;;;;;12.27;2.35;;;22.00;47.70;;;;;;5084318;28;20114;-73
2022/01/10 12:40:50;;;;;;;8.05;2.30;;;22.00;47.70;;;;;;5080857;28;20028;-69
2022/01/10 12:43:16;;;;;;;11.80;2.25;;;22.00;47.50;;;;;;5067418;28;20028;-68
2022/01/10 12:45:42;;;;;;;8.63;2.13;;;22.00;47.50;;;;;;5079703;28;20074;-68
2022/01/10 12:48:11;;;;;;;6.47;2.05;;;22.00;47.60;;;;;;5078126;28;20395;-67
2022/01/10 12:50:40;;;;;;;8.70;2.17;;;22.00;47.70;;;;;;5080067;28;20851;-67
2022/01/10 12:53:06;;;;;;;6.97;2.13;;;22.00;47.70;;;;;;5080079;28;20032;-68
2022/01/10 12:55:33;;;;;;;9.32;2.28;;;22.10;47.90;;;;;;5081202;28;20051;-69
2022/01/10 12:57:59;;;;;;;8.52;2.13;;;22.10;47.90;;;;;;5081082;28;20579;-67
2022/01/10 13:00:25;;;;;;;6.18;2.08;;;22.10;47.90;;;;;;5081761;28;20036;-67
2022/01/10 13:02:50;;;;;;;11.40;2.30;;;22.10;48.00;;;;;;5082904;28;20514;-69
2022/01/10 13:05:20;;;;;;;18.00;2.47;;;22.00;47.90;;;;;;5083586;28;20044;-68
2022/01/10 13:07:49;;;;;;;6.93;2.25;;;22.10;48.00;;;;;;5084344;28;20562;-69
2022/01/10 13:10:34;;;;;;;9.80;2.55;;;22.10;47.90;;;;;;5086599;28;20418;-69
2022/01/10 13:13:03;;;;;;;9.90;2.10;;;22.10;48.00;;;;;;5084044;28;20040;-68
2022/01/10 13:15:33;;;;;;;7.25;2.13;;;22.10;48.00;;;;;;5086653;28;20569;-67
2022/01/10 13:18:01;;;;;;;7.75;2.22;;;22.10;48.10;;;;;;5085148;28;20146;-68
2022/01/10 13:20:29;;;;;;;5.83;2.57;;;22.20;48.20;;;;;;5086683;28;20032;-69
2022/01/10 13:23:02;;;;;;;9.93;1.98;;;22.10;48.20;;;;;;5085081;28;20112;-70
2022/01/10 13:25:32;;;;;;;8.77;2.58;;;22.10;48.20;;;;;;5082739;28;20093;-70
2022/01/10 13:28:08;;;;;;;7.65;1.83;;;22.10;48.20;;;;;;5084514;28;20098;-71
2022/01/10 13:30:48;;;;;;;6.03;2.33;;;22.00;48.10;;;;;;5083219;28;20032;-68
2022/01/10 13:33:14;;;;;;;7.47;2.17;;;22.00;48.00;;;;;;5080517;28;20054;-71
2022/01/10 13:35:39;;;;;;;11.43;2.20;;;22.00;47.90;;;;;;5085396;28;20040;-68
2022/01/10 13:38:13;;;;;;;8.10;2.03;;;22.00;48.00;;;;;;5093688;28;20044;-67
2022/01/10 13:40:41;;;;;;;10.25;2.38;;;21.90;47.90;;;;;;5087199;28;20511;-70
2022/01/10 13:43:09;;;;;;;9.73;2.30;;;21.90;48.00;;;;;;5086150;28;20608;-68
2022/01/10 13:45:53;;;;;;;;;;;21.90;47.90;;;;;;5085251;28;20503;-70
2022/01/10 13:48:31;;;;;;;9.18;2.58;;;21.90;47.80;;;;;;5085096;28;19931;-71
2022/01/10 13:51:03;;;;;;;10.82;2.33;;;21.80;47.70;;;;;;5071770;28;20047;-72
2022/01/10 13:53:29;;;;;;;9.90;2.70;;;21.80;47.70;;;;;;5082432;28;20048;-71
2022/01/10 13:56:32;;;;;;;9.60;3.08;;;21.80;47.50;;;;;;5083466;28;20052;-69
2022/01/10 13:59:05;;;;;;;9.15;2.88;;;21.70;46.80;;;;;;5041131;28;20531;-71
2022/01/10 14:01:34;;;;;;;10.57;3.15;;;21.70;47.20;;;;;;5082319;28;20113;-71
2022/01/10 14:04:21;;;;;;;10.80;3.17;;;21.70;47.20;;;;;;5083772;28;20513;-69
2022/01/10 14:06:48;;;;;;;5.82;2.83;;;21.60;47.10;;;;;;5082678;28;20054;-70
2022/01/10 14:09:14;;;;;;;9.10;2.80;;;21.60;47.10;;;;;;5083889;28;20052;-68
2022/01/10 14:11:40;;;;;;;15.85;3.50;;;21.60;47.20;;;;;;5083761;28;20074;-70
2022/01/10 14:14:09;;;;;;;10.43;3.03;;;21.60;48.00;;;;;;5088543;28;20487;-69
2022/01/10 14:16:40;;;;;;;9.65;2.80;;;21.60;47.20;;;;;;5090295;28;20465;-69
2022/01/10 14:19:08;;;;;;;10.05;3.03;;;21.50;47.30;;;;;;5088423;28;20651;-69
2022/01/10 14:21:34;;;;;;;;;;;21.50;47.40;;;;;;5085796;28;20478;-68
2022/01/10 14:24:00;;;;;;;12.05;3.03;;;21.60;47.50;;;;;;5084677;28;19931;-68
2022/01/10 14:26:25;;;;;;;23.90;8.80;;;21.50;47.60;;;;;;5091767;28;20469;-69
2022/01/10 14:28:52;;;;;;;87.78;28.25;;;21.50;47.80;;;;;;5072491;28;20054;-69
2022/01/10 14:31:18;;;;;;;127.90;45.35;;;21.50;47.90;;;;;;5083255;28;20067;-68
2022/01/10 14:33:45;;;;;;;198.95;69.35;;;21.50;48.10;;;;;;5086306;28;20077;-69
2022/01/10 14:36:10;;;;;;;168.02;63.53;;;21.50;48.60;;;;;;5086809;28;20149;-69
2022/01/10 14:38:37;;;;;;;165.10;60.95;;;21.50;49.00;;;;;;5090753;28;20074;-72
2022/01/10 14:41:03;;;;;;;169.50;62.65;;;21.50;49.40;;;;;;5094851;28;20031;-70
2022/01/10 14:43:29;;;;;;;166.93;60.28;;;21.50;49.70;;;;;;5089401;28;20071;-71
2022/01/10 14:45:55;;;;;;;146.18;58.78;;;21.50;49.90;;;;;;5092720;28;20054;-68
2022/01/10 14:48:22;;;;;;;147.63;56.88;;;21.50;50.10;;;;;;5073022;28;20185;-70
2022/01/10 14:50:48;;;;;;;140.27;54.72;;;21.50;50.30;;;;;;5077753;28;20391;-68
2022/01/10 14:53:14;;;;;;;133.80;52.90;;;21.50;50.40;;;;;;5084370;28;20118;-69
2022/01/10 14:55:45;;;;;;;127.05;52.97;;;21.50;50.50;;;;;;5081306;28;20120;-68
2022/01/10 14:58:11;;;;;;;127.80;51.10;;;21.50;50.70;;;;;;5083461;28;20832;-68
2022/01/10 15:00:39;;;;;;;128.98;51.63;;;21.50;50.80;;;;;;5083071;28;20116;-69
2022/01/10 15:03:05;;;;;;;125.90;50.65;;;21.50;50.90;;;;;;5082424;28;20043;-70
2022/01/10 15:05:36;;;;;;;119.85;47.22;;;21.50;51.00;;;;;;5090728;28;20692;-76
2022/01/10 15:08:02;;;;;;;124.30;47.58;;;21.50;51.20;;;;;;5083682;28;20099;-69
2022/01/10 15:10:28;;;;;;;115.95;44.55;;;21.50;51.20;;;;;;5066477;28;20044;-70
2022/01/10 15:12:54;;;;;;;116.50;45.67;;;21.50;51.10;;;;;;5078251;28;20134;-69
2022/01/10 15:15:19;;;;;;;113.30;43.35;;;21.50;51.20;;;;;;5081579;28;20523;-70
2022/01/10 15:17:45;;;;;;;108.82;43.88;;;21.50;51.10;;;;;;5081034;28;20053;-69
2022/01/10 15:20:11;;;;;;;97.93;40.22;;;21.40;51.00;;;;;;5079585;28;20048;-69
2022/01/10 15:22:36;;;;;;;105.65;42.42;;;21.40;51.10;;;;;;5081355;28;20035;-70
2022/01/10 15:25:04;;;;;;;100.53;40.60;;;21.40;51.10;;;;;;5079785;28;20047;-69
2022/01/10 15:27:30;;;;;;;105.38;41.03;;;21.40;51.10;;;;;;5081131;28;20039;-70
2022/01/10 15:29:56;;;;;;;99.80;39.40;;;21.40;51.10;;;;;;5082162;28;20503;-69
2022/01/10 15:32:22;;;;;;;98.47;38.13;;;21.40;51.20;;;;;;5082652;28;20040;-68
2022/01/10 15:34:47;;;;;;;96.15;36.97;;;21.40;51.10;;;;;;5082857;28;20036;-67
2022/01/10 15:37:13;;;;;;;92.80;37.08;;;21.40;51.10;;;;;;5082853;28;20509;-69
2022/01/10 15:39:38;;;;;;;88.22;35.75;;;21.40;51.10;;;;;;5082653;28;20509;-68
2022/01/10 15:42:05;;;;;;;84.45;35.38;;;21.30;51.10;;;;;;5083155;28;20058;-69
2022/01/10 15:44:30;;;;;;;86.75;34.83;;;21.30;51.10;;;;;;5082992;28;20133;-69
2022/01/10 15:46:58;;;;;;;79.93;33.08;;;21.30;51.10;;;;;;5082503;28;20621;-68
2022/01/10 15:49:25;;;;;;;82.68;33.80;;;21.30;51.10;;;;;;5079562;28;20633;-68
2022/01/10 15:51:50;;;;;;;79.30;34.08;;;21.30;51.10;;;;;;5082555;28;20074;-66
2022/01/10 15:54:16;;;;;;;81.70;32.78;;;21.30;51.00;;;;;;5082086;28;20052;-69
2022/01/10 15:56:42;;;;;;;76.13;31.75;;;21.30;50.90;;;;;;5080691;28;20407;-68
2022/01/10 15:59:08;;;;;;;74.40;30.13;;;21.20;50.90;;;;;;5080820;28;20048;-68
2022/01/10 16:01:34;;;;;;;65.90;29.52;;;21.20;50.90;;;;;;5097936;28;20040;-68
2022/01/10 16:04:00;;;;;;;69.65;28.95;;;21.20;50.80;;;;;;5084653;28;20044;-67
2022/01/10 16:06:28;;;;;;;68.05;28.13;;;21.20;50.90;;;;;;5089229;28;20048;-66
2022/01/10 16:08:56;;;;;;;70.40;28.65;;;21.20;50.90;;;;;;5085510;28;20099;-68
2022/01/10 16:11:22;;;;;;;61.55;27.45;;;21.20;50.90;;;;;;5090679;28;20126;-67
2022/01/10 16:13:51;;;;;;;60.28;25.15;;;21.20;50.90;;;;;;5095231;28;20046;-68
2022/01/10 16:16:21;;;;;;;60.17;25.45;;;21.10;51.00;;;;;;5058491;28;20031;-68
2022/01/10 16:18:47;;;;;;;63.80;24.77;;;21.10;51.10;;;;;;5071561;28;20049;-68
2022/01/10 16:21:14;;;;;;;59.63;24.98;;;21.10;52.00;;;;;;5092044;28;20047;-68
2022/01/10 16:23:40;;;;;;;59.17;24.08;;;21.10;51.30;;;;;;5079993;28;20052;-67
2022/01/10 16:26:06;;;;;;;53.55;23.40;;;21.10;51.40;;;;;;5082738;28;20063;-68
2022/01/10 16:28:34;;;;;;;53.05;22.92;;;21.10;51.40;;;;;;5078652;28;20040;-68
2022/01/10 16:30:59;;;;;;;51.10;22.48;;;21.10;51.40;;;;;;5083595;28;20582;-67
2022/01/10 16:33:25;;;;;;;58.70;21.98;;;21.10;51.40;;;;;;5086594;28;20051;-68
2022/01/10 16:35:51;;;;;;;52.55;22.05;;;21.10;51.40;;;;;;5086137;28;20488;-67
2022/01/10 16:38:18;;;;;;;50.33;21.02;;;21.10;51.50;;;;;;5085692;28;20040;-67
2022/01/10 16:40:44;;;;;;;50.97;21.67;;;21.10;51.50;;;;;;5090172;28;20055;-68
2022/01/10 16:43:10;;;;;;;52.08;20.55;;;21.10;51.50;;;;;;5087360;28;20159;-67
2022/01/10 16:45:36;;;;;;;46.58;19.70;;;21.10;51.70;;;;;;5087350;28;20509;-67
2022/01/10 16:48:02;;;;;;;52.03;19.60;;;21.10;51.80;;;;;;5087302;28;20486;-67
2022/01/10 16:50:28;;;;;;;47.13;19.25;;;21.10;51.90;;;;;;5085421;28;20530;-67
2022/01/10 16:52:54;;;;;;;41.53;19.58;;;21.10;52.30;;;;;;5089020;28;20032;-68
2022/01/10 16:55:20;;;;;;;40.15;18.23;;;21.10;52.50;;;;;;5085894;28;20089;-68
2022/01/10 16:57:45;;;;;;;43.58;18.30;;;21.10;52.90;;;;;;5084318;28;20043;-69
2022/01/10 17:00:11;;;;;;;41.50;17.83;;;21.10;53.40;;;;;;5083032;28;20080;-68
2022/01/10 17:02:37;;;;;;;44.35;17.58;;;21.10;53.60;;;;;;5067645;28;20048;-68
2022/01/10 17:05:05;;;;;;;35.53;16.52;;;21.10;53.90;;;;;;5084685;28;20048;-68
2022/01/10 17:07:30;;;;;;;36.28;15.77;;;21.10;54.20;;;;;;5085181;28;20036;-70
2022/01/10 17:09:56;;;;;;;38.65;16.13;;;21.10;54.40;;;;;;5086881;28;20376;-70
2022/01/10 17:12:22;;;;;;;35.30;16.10;;;21.10;54.90;;;;;;5084179;28;20086;-69
2022/01/10 17:14:48;;;;;;;36.17;15.63;;;21.10;55.70;;;;;;5085550;28;20490;-71
2022/01/10 17:17:17;;;;;;;36.05;15.65;;;21.10;56.30;;;;;;5084178;28;20032;-70
2022/01/10 17:19:44;;;;;;;32.17;14.77;;;21.10;56.70;;;;;;5084229;28;20086;-68
2022/01/10 17:22:14;;;;;;;34.10;14.13;;;21.10;56.80;;;;;;5085455;28;20040;-72
2022/01/10 17:24:41;;;;;;;30.55;14.88;;;21.00;56.70;;;;;;5083014;28;20036;-71
2022/01/10 17:27:07;;;;;;;29.95;14.10;;;21.10;56.70;;;;;;5084971;28;20055;-70
2022/01/10 17:29:33;;;;;;;32.67;14.27;;;21.10;56.90;;;;;;5084631;28;20156;-71
2022/01/10 17:31:58;;;;;;;30.33;13.52;;;21.10;56.90;;;;;;5084195;28;20100;-71
2022/01/10 17:34:24;;;;;;;29.63;13.45;;;21.10;56.90;;;;;;5082394;28;20732;-69
2022/01/10 17:36:51;;;;;;;27.00;13.02;;;21.10;56.70;;;;;;5085904;28;20044;-70
2022/01/10 17:39:17;;;;;;;29.55;13.30;;;21.10;56.60;;;;;;5085419;28;20111;-69
2022/01/10 17:41:43;;;;;;;27.48;12.70;;;21.10;56.50;;;;;;5085479;28;20502;-69
2022/01/10 17:44:08;;;;;;;28.25;12.52;;;21.10;56.40;;;;;;5083744;28;20047;-71
2022/01/10 17:46:34;;;;;;;27.92;11.98;;;21.00;56.30;;;;;;5085245;28;20052;-69
2022/01/10 17:49:03;;;;;;;25.70;11.55;;;21.10;56.30;;;;;;5079951;28;20040;-69
2022/01/10 17:51:36;;;;;;;26.77;11.68;;;21.10;56.10;;;;;;5081399;28;20051;-70
2022/01/10 17:54:04;;;;;;;24.30;12.32;;;21.10;56.20;;;;;;5083218;28;20040;-71
2022/01/10 17:56:30;;;;;;;26.05;11.95;;;21.10;56.10;;;;;;5082665;28;20048;-72
2022/01/10 17:58:57;;;;;;;26.70;11.75;;;21.10;56.00;;;;;;5083115;28;20048;-72
2022/01/10 18:01:23;;;;;;;22.30;11.15;;;21.10;56.00;;;;;;5085624;28;20159;-71
2022/01/10 18:03:49;;;;;;;21.33;10.35;;;21.00;55.90;;;;;;5065439;28;20447;-70
2022/01/10 18:06:15;;;;;;;22.85;10.68;;;21.00;55.80;;;;;;5082409;28;20546;-72
2022/01/10 18:08:40;;;;;;;19.42;10.07;;;21.00;55.70;;;;;;5085214;28;20086;-72
2022/01/10 18:11:06;;;;;;;23.02;9.75;;;21.00;55.70;;;;;;5096803;28;20458;-70
2022/01/10 18:13:32;;;;;;;21.88;10.70;;;21.00;55.60;;;;;;5085686;28;20070;-70
2022/01/10 18:15:58;;;;;;;24.88;10.80;;;21.10;55.60;;;;;;5084676;28;20059;-69
2022/01/10 18:18:23;;;;;;;23.23;10.00;;;21.00;55.50;;;;;;5085102;28;20025;-68
2022/01/10 18:20:50;;;;;;;24.35;10.25;;;21.10;55.40;;;;;;5074537;28;20047;-68
